sensor_id;sensor_type;location;lat;lon;timestamp;temperature;humidity
64549;DHT22;49838;51.798;10.954;2022-10-17T00:00:26;21.90;38.80
64549;DHT22;49838;51.798;10.954;2022-10-17T00:02:53;21.80;38.70
64549;DHT22;49838;51.798;10.954;2022-10-17T00:05:21;21.80;38.70
64549;DHT22;49838;51.798;10.954;2022-10-17T00:07:51;21.80;38.70
64549;DHT22;49838;51.798;10.954;2022-10-17T00:10:19;21.70;38.60
64549;DHT22;49838;51.798;10.954;2022-10-17T00:12:46;21.70;38.60
64549;DHT22;49838;51.798;10.954;2022-10-17T00:15:15;21.70;38.70
64549;DHT22;49838;51.798;10.954;2022-10-17T00:17:43;21.60;38.70
64549;DHT22;49838;51.798;10.954;2022-10-17T00:20:11;21.60;38.80
64549;DHT22;49838;51.798;10.954;2022-10-17T00:22:39;21.50;38.70
64549;DHT22;49838;51.798;10.954;2022-10-17T00:25:08;21.50;38.70
64549;DHT22;49838;51.798;10.954;2022-10-17T00:27:36;21.40;38.60
64549;DHT22;49838;51.798;10.954;2022-10-17T00:30:05;21.40;38.60
64549;DHT22;49838;51.798;10.954;2022-10-17T00:32:37;21.40;38.70
64549;DHT22;49838;51.798;10.954;2022-10-17T00:35:05;21.40;38.70
64549;DHT22;49838;51.798;10.954;2022-10-17T00:37:33;21.30;38.70
64549;DHT22;49838;51.798;10.954;2022-10-17T00:40:02;21.30;38.70
64549;DHT22;49838;51.798;10.954;2022-10-17T00:42:31;21.30;38.70
64549;DHT22;49838;51.798;10.954;2022-10-17T00:45:00;21.30;38.70
64549;DHT22;49838;51.798;10.954;2022-10-17T00:47:37;21.20;38.70
64549;DHT22;49838;51.798;10.954;2022-10-17T00:50:05;21.20;38.70
64549;DHT22;49838;51.798;10.954;2022-10-17T00:52:33;21.20;38.80
64549;DHT22;49838;51.798;10.954;2022-10-17T00:55:03;21.10;38.60
64549;DHT22;49838;51.798;10.954;2022-10-17T00:57:38;21.10;39.30
64549;DHT22;49838;51.798;10.954;2022-10-17T01:00:07;21.10;38.70
64549;DHT22;49838;51.798;10.954;2022-10-17T01:02:37;21.10;38.70
64549;DHT22;49838;51.798;10.954;2022-10-17T01:05:04;21.10;38.80
64549;DHT22;49838;51.798;10.954;2022-10-17T01:07:33;21.10;38.80
64549;DHT22;49838;51.798;10.954;2022-10-17T01:10:01;21.10;38.80
64549;DHT22;49838;51.798;10.954;2022-10-17T01:12:31;21.10;38.80
64549;DHT22;49838;51.798;10.954;2022-10-17T01:15:12;21.00;39.40
64549;DHT22;49838;51.798;10.954;2022-10-17T01:17:45;21.00;38.70
64549;DHT22;49838;51.798;10.954;2022-10-17T01:20:28;21.00;38.80
64549;DHT22;49838;51.798;10.954;2022-10-17T01:23:17;20.90;38.70
64549;DHT22;49838;51.798;10.954;2022-10-17T01:25:58;20.90;38.70
64549;DHT22;49838;51.798;10.954;2022-10-17T01:28:43;20.90;38.80
64549;DHT22;49838;51.798;10.954;2022-10-17T01:31:31;20.90;39.40
64549;DHT22;49838;51.798;10.954;2022-10-17T01:34:07;20.90;38.80
64549;DHT22;49838;51.798;10.954;2022-10-17T01:36:41;20.80;38.80
64549;DHT22;49838;51.798;10.954;2022-10-17T01:39:17;20.80;38.80
64549;DHT22;49838;51.798;10.954;2022-10-17T01:41:55;20.80;38.90
64549;DHT22;49838;51.798;10.954;2022-10-17T01:44:27;20.70;38.80
64549;DHT22;49838;51.798;10.954;2022-10-17T01:47:03;20.80;38.80
64549;DHT22;49838;51.798;10.954;2022-10-17T01:49:33;20.80;38.90
64549;DHT22;49838;51.798;10.954;2022-10-17T01:52:05;20.70;38.80
64549;DHT22;49838;51.798;10.954;2022-10-17T01:54:37;20.70;38.80
64549;DHT22;49838;51.798;10.954;2022-10-17T01:57:09;20.70;38.90
64549;DHT22;49838;51.798;10.954;2022-10-17T01:59:41;20.70;38.90
64549;DHT22;49838;51.798;10.954;2022-10-17T02:02:13;20.70;38.90
64549;DHT22;49838;51.798;10.954;2022-10-17T02:04:43;20.70;39.50
64549;DHT22;49838;51.798;10.954;2022-10-17T02:07:13;20.70;38.90
64549;DHT22;49838;51.798;10.954;2022-10-17T02:09:40;20.70;38.90
64549;DHT22;49838;51.798;10.954;2022-10-17T02:15:10;20.70;39.00
64549;DHT22;49838;51.798;10.954;2022-10-17T02:17:57;20.70;39.00
64549;DHT22;49838;51.798;10.954;2022-10-17T02:20:39;20.60;38.90
64549;DHT22;49838;51.798;10.954;2022-10-17T02:23:16;20.60;39.00
64549;DHT22;49838;51.798;10.954;2022-10-17T02:25:53;20.60;39.00
64549;DHT22;49838;51.798;10.954;2022-10-17T02:28:29;20.60;39.10
64549;DHT22;49838;51.798;10.954;2022-10-17T02:31:05;20.60;39.20
64549;DHT22;49838;51.798;10.954;2022-10-17T02:33:42;20.70;39.30
64549;DHT22;49838;51.798;10.954;2022-10-17T02:36:14;20.80;39.50
64549;DHT22;49838;51.798;10.954;2022-10-17T02:38:45;20.80;39.60
64549;DHT22;49838;51.798;10.954;2022-10-17T02:41:14;21.00;40.00
64549;DHT22;49838;51.798;10.954;2022-10-17T02:43:44;21.00;40.10
64549;DHT22;49838;51.798;10.954;2022-10-17T02:46:14;21.10;40.20
64549;DHT22;49838;51.798;10.954;2022-10-17T02:48:48;21.20;40.70
64549;DHT22;49838;51.798;10.954;2022-10-17T02:51:21;21.30;40.80
64549;DHT22;49838;51.798;10.954;2022-10-17T02:53:54;21.30;41.00
64549;DHT22;49838;51.798;10.954;2022-10-17T02:56:32;21.40;41.00
64549;DHT22;49838;51.798;10.954;2022-10-17T02:59:08;21.50;41.10
64549;DHT22;49838;51.798;10.954;2022-10-17T03:01:38;21.60;41.40
64549;DHT22;49838;51.798;10.954;2022-10-17T03:04:08;21.60;41.40
64549;DHT22;49838;51.798;10.954;2022-10-17T03:06:36;21.70;41.50
64549;DHT22;49838;51.798;10.954;2022-10-17T03:09:05;21.80;41.60
64549;DHT22;49838;51.798;10.954;2022-10-17T03:11:32;21.80;41.70
64549;DHT22;49838;51.798;10.954;2022-10-17T03:14:00;21.90;41.70
64549;DHT22;49838;51.798;10.954;2022-10-17T03:16:27;21.90;41.60
64549;DHT22;49838;51.798;10.954;2022-10-17T03:18:55;22.00;41.70
64549;DHT22;49838;51.798;10.954;2022-10-17T03:21:24;22.00;41.60
64549;DHT22;49838;51.798;10.954;2022-10-17T03:23:51;22.10;41.90
64549;DHT22;49838;51.798;10.954;2022-10-17T03:26:18;22.10;42.00
64549;DHT22;49838;51.798;10.954;2022-10-17T03:28:46;22.20;42.20
64549;DHT22;49838;51.798;10.954;2022-10-17T03:31:14;22.20;42.10
64549;DHT22;49838;51.798;10.954;2022-10-17T03:33:42;22.20;42.10
64549;DHT22;49838;51.798;10.954;2022-10-17T03:36:11;22.30;42.10
64549;DHT22;49838;51.798;10.954;2022-10-17T03:38:42;22.30;42.10
64549;DHT22;49838;51.798;10.954;2022-10-17T03:41:10;22.40;42.10
64549;DHT22;49838;51.798;10.954;2022-10-17T03:43:38;22.40;42.10
64549;DHT22;49838;51.798;10.954;2022-10-17T03:46:06;22.40;42.00
64549;DHT22;49838;51.798;10.954;2022-10-17T03:48:33;22.50;42.00
64549;DHT22;49838;51.798;10.954;2022-10-17T03:51:01;22.50;42.00
64549;DHT22;49838;51.798;10.954;2022-10-17T03:53:30;22.50;42.00
64549;DHT22;49838;51.798;10.954;2022-10-17T03:56:08;22.60;42.00
64549;DHT22;49838;51.798;10.954;2022-10-17T03:58:37;22.60;41.90
64549;DHT22;49838;51.798;10.954;2022-10-17T04:01:05;22.60;41.80
64549;DHT22;49838;51.798;10.954;2022-10-17T04:03:33;22.60;41.80
64549;DHT22;49838;51.798;10.954;2022-10-17T04:06:02;22.70;41.70
64549;DHT22;49838;51.798;10.954;2022-10-17T04:08:30;22.70;41.80
64549;DHT22;49838;51.798;10.954;2022-10-17T04:10:58;22.70;41.70
64549;DHT22;49838;51.798;10.954;2022-10-17T04:13:28;22.70;41.80
64549;DHT22;49838;51.798;10.954;2022-10-17T04:15:56;22.70;41.70
64549;DHT22;49838;51.798;10.954;2022-10-17T04:18:24;22.70;41.80
64549;DHT22;49838;51.798;10.954;2022-10-17T04:20:52;22.70;41.80
64549;DHT22;49838;51.798;10.954;2022-10-17T04:23:19;22.70;41.70
64549;DHT22;49838;51.798;10.954;2022-10-17T04:25:47;22.70;41.60
64549;DHT22;49838;51.798;10.954;2022-10-17T04:28:14;22.80;41.60
64549;DHT22;49838;51.798;10.954;2022-10-17T04:30:43;22.80;41.60
64549;DHT22;49838;51.798;10.954;2022-10-17T04:33:10;22.80;41.60
64549;DHT22;49838;51.798;10.954;2022-10-17T04:35:37;22.80;41.50
64549;DHT22;49838;51.798;10.954;2022-10-17T04:38:05;22.80;41.60
64549;DHT22;49838;51.798;10.954;2022-10-17T04:40:32;22.80;41.50
64549;DHT22;49838;51.798;10.954;2022-10-17T04:42:59;22.90;41.60
64549;DHT22;49838;51.798;10.954;2022-10-17T04:45:27;22.80;41.50
64549;DHT22;49838;51.798;10.954;2022-10-17T04:47:56;22.80;41.50
64549;DHT22;49838;51.798;10.954;2022-10-17T04:50:23;22.90;41.60
64549;DHT22;49838;51.798;10.954;2022-10-17T04:52:50;22.80;41.60
64549;DHT22;49838;51.798;10.954;2022-10-17T04:55:18;22.80;41.70
64549;DHT22;49838;51.798;10.954;2022-10-17T04:57:45;22.80;41.60
64549;DHT22;49838;51.798;10.954;2022-10-17T05:00:12;22.90;41.70
64549;DHT22;49838;51.798;10.954;2022-10-17T05:02:40;22.80;41.70
64549;DHT22;49838;51.798;10.954;2022-10-17T05:05:09;22.90;41.70
64549;DHT22;49838;51.798;10.954;2022-10-17T05:07:38;22.90;41.80
64549;DHT22;49838;51.798;10.954;2022-10-17T05:10:06;22.90;41.80
64549;DHT22;49838;51.798;10.954;2022-10-17T05:12:34;22.90;41.80
64549;DHT22;49838;51.798;10.954;2022-10-17T05:15:01;22.90;41.90
64549;DHT22;49838;51.798;10.954;2022-10-17T05:17:29;22.90;42.00
64549;DHT22;49838;51.798;10.954;2022-10-17T05:19:56;22.90;42.00
64549;DHT22;49838;51.798;10.954;2022-10-17T05:22:25;22.90;42.10
64549;DHT22;49838;51.798;10.954;2022-10-17T05:24:52;22.90;42.10
64549;DHT22;49838;51.798;10.954;2022-10-17T05:27:20;22.90;42.10
64549;DHT22;49838;51.798;10.954;2022-10-17T05:29:47;22.90;42.10
64549;DHT22;49838;51.798;10.954;2022-10-17T05:32:14;23.00;42.10
64549;DHT22;49838;51.798;10.954;2022-10-17T05:34:42;23.00;42.20
64549;DHT22;49838;51.798;10.954;2022-10-17T05:37:09;23.00;42.10
64549;DHT22;49838;51.798;10.954;2022-10-17T05:39:38;23.00;42.20
64549;DHT22;49838;51.798;10.954;2022-10-17T05:42:06;23.00;42.30
64549;DHT22;49838;51.798;10.954;2022-10-17T05:44:33;23.00;42.20
64549;DHT22;49838;51.798;10.954;2022-10-17T05:47:00;23.00;42.20
64549;DHT22;49838;51.798;10.954;2022-10-17T05:49:28;23.00;42.20
64549;DHT22;49838;51.798;10.954;2022-10-17T05:51:55;23.00;42.20
64549;DHT22;49838;51.798;10.954;2022-10-17T05:54:22;23.00;42.80
64549;DHT22;49838;51.798;10.954;2022-10-17T05:56:51;23.10;42.20
64549;DHT22;49838;51.798;10.954;2022-10-17T05:59:20;23.10;42.10
64549;DHT22;49838;51.798;10.954;2022-10-17T06:01:47;23.20;42.10
64549;DHT22;49838;51.798;10.954;2022-10-17T06:04:15;23.20;42.00
64549;DHT22;49838;51.798;10.954;2022-10-17T06:06:42;23.30;42.10
64549;DHT22;49838;51.798;10.954;2022-10-17T06:09:10;23.40;42.10
64549;DHT22;49838;51.798;10.954;2022-10-17T06:11:37;23.40;42.10
64549;DHT22;49838;51.798;10.954;2022-10-17T06:14:06;23.50;42.20
64549;DHT22;49838;51.798;10.954;2022-10-17T06:16:34;23.50;42.10
64549;DHT22;49838;51.798;10.954;2022-10-17T06:19:01;23.70;42.10
64549;DHT22;49838;51.798;10.954;2022-10-17T06:21:28;23.80;42.20
64549;DHT22;49838;51.798;10.954;2022-10-17T06:23:59;23.90;42.20
64549;DHT22;49838;51.798;10.954;2022-10-17T06:26:26;23.90;42.10
64549;DHT22;49838;51.798;10.954;2022-10-17T06:28:54;24.00;42.40
64549;DHT22;49838;51.798;10.954;2022-10-17T06:31:23;24.10;42.20
64549;DHT22;49838;51.798;10.954;2022-10-17T06:33:50;24.10;42.30
64549;DHT22;49838;51.798;10.954;2022-10-17T06:36:17;24.20;42.40
64549;DHT22;49838;51.798;10.954;2022-10-17T06:38:45;24.20;42.50
64549;DHT22;49838;51.798;10.954;2022-10-17T06:41:13;24.20;42.40
64549;DHT22;49838;51.798;10.954;2022-10-17T06:43:44;24.30;42.60
64549;DHT22;49838;51.798;10.954;2022-10-17T06:46:12;24.30;42.50
64549;DHT22;49838;51.798;10.954;2022-10-17T06:48:42;24.40;42.80
64549;DHT22;49838;51.798;10.954;2022-10-17T06:51:10;24.40;42.70
64549;DHT22;49838;51.798;10.954;2022-10-17T06:53:38;24.50;42.80
64549;DHT22;49838;51.798;10.954;2022-10-17T06:56:07;24.50;42.80
64549;DHT22;49838;51.798;10.954;2022-10-17T06:58:36;24.60;42.90
64549;DHT22;49838;51.798;10.954;2022-10-17T07:01:05;24.70;42.80
64549;DHT22;49838;51.798;10.954;2022-10-17T07:03:33;24.80;42.90
64549;DHT22;49838;51.798;10.954;2022-10-17T07:06:03;24.80;42.90
64549;DHT22;49838;51.798;10.954;2022-10-17T07:08:30;24.90;43.00
64549;DHT22;49838;51.798;10.954;2022-10-17T07:10:58;24.90;42.90
64549;DHT22;49838;51.798;10.954;2022-10-17T07:13:35;25.00;43.00
64549;DHT22;49838;51.798;10.954;2022-10-17T07:16:02;25.10;43.00
64549;DHT22;49838;51.798;10.954;2022-10-17T07:18:30;25.10;42.90
64549;DHT22;49838;51.798;10.954;2022-10-17T07:20:58;25.20;43.00
64549;DHT22;49838;51.798;10.954;2022-10-17T07:23:26;25.20;43.00
64549;DHT22;49838;51.798;10.954;2022-10-17T07:25:57;25.30;43.10
64549;DHT22;49838;51.798;10.954;2022-10-17T07:28:26;25.30;42.90
64549;DHT22;49838;51.798;10.954;2022-10-17T07:30:53;25.40;42.90
64549;DHT22;49838;51.798;10.954;2022-10-17T07:33:21;25.50;42.80
64549;DHT22;49838;51.798;10.954;2022-10-17T07:35:48;25.60;42.90
64549;DHT22;49838;51.798;10.954;2022-10-17T07:38:17;25.60;42.90
64549;DHT22;49838;51.798;10.954;2022-10-17T07:40:46;25.70;42.80
64549;DHT22;49838;51.798;10.954;2022-10-17T07:43:20;25.80;42.80
64549;DHT22;49838;51.798;10.954;2022-10-17T07:45:47;26.00;42.70
64549;DHT22;49838;51.798;10.954;2022-10-17T07:48:15;26.00;42.70
64549;DHT22;49838;51.798;10.954;2022-10-17T07:50:42;26.00;42.70
64549;DHT22;49838;51.798;10.954;2022-10-17T07:53:10;26.00;42.70
64549;DHT22;49838;51.798;10.954;2022-10-17T07:55:37;26.00;42.70
64549;DHT22;49838;51.798;10.954;2022-10-17T07:58:06;26.10;42.60
64549;DHT22;49838;51.798;10.954;2022-10-17T08:00:35;26.10;42.60
64549;DHT22;49838;51.798;10.954;2022-10-17T08:03:03;26.10;42.60
64549;DHT22;49838;51.798;10.954;2022-10-17T08:05:31;26.20;42.60
64549;DHT22;49838;51.798;10.954;2022-10-17T08:07:59;26.30;42.60
64549;DHT22;49838;51.798;10.954;2022-10-17T08:10:26;26.30;42.50
64549;DHT22;49838;51.798;10.954;2022-10-17T08:12:54;26.40;42.60
64549;DHT22;49838;51.798;10.954;2022-10-17T08:15:24;26.50;42.60
64549;DHT22;49838;51.798;10.954;2022-10-17T08:17:52;26.60;42.60
64549;DHT22;49838;51.798;10.954;2022-10-17T08:20:20;26.70;42.40
64549;DHT22;49838;51.798;10.954;2022-10-17T08:22:50;26.80;42.40
64549;DHT22;49838;51.798;10.954;2022-10-17T08:25:18;26.80;42.30
64549;DHT22;49838;51.798;10.954;2022-10-17T08:27:46;27.00;42.40
64549;DHT22;49838;51.798;10.954;2022-10-17T08:30:13;27.30;42.70
64549;DHT22;49838;51.798;10.954;2022-10-17T08:32:42;27.70;43.40
64549;DHT22;49838;51.798;10.954;2022-10-17T08:35:10;28.20;43.40
64549;DHT22;49838;51.798;10.954;2022-10-17T08:37:39;28.50;44.00
64549;DHT22;49838;51.798;10.954;2022-10-17T08:40:09;29.00;43.30
64549;DHT22;49838;51.798;10.954;2022-10-17T08:42:47;29.20;42.70
64549;DHT22;49838;51.798;10.954;2022-10-17T08:45:26;29.40;42.60
64549;DHT22;49838;51.798;10.954;2022-10-17T08:47:59;29.70;42.30
64549;DHT22;49838;51.798;10.954;2022-10-17T08:50:29;29.80;41.60
64549;DHT22;49838;51.798;10.954;2022-10-17T08:53:02;29.80;41.10
64549;DHT22;49838;51.798;10.954;2022-10-17T08:55:35;29.80;40.80
64549;DHT22;49838;51.798;10.954;2022-10-17T08:58:09;29.80;40.60
64549;DHT22;49838;51.798;10.954;2022-10-17T09:00:40;29.80;40.80
64549;DHT22;49838;51.798;10.954;2022-10-17T09:03:17;29.70;40.60
64549;DHT22;49838;51.798;10.954;2022-10-17T09:05:55;29.70;40.60
64549;DHT22;49838;51.798;10.954;2022-10-17T09:08:36;29.60;40.40
64549;DHT22;49838;51.798;10.954;2022-10-17T09:11:14;29.60;40.40
64549;DHT22;49838;51.798;10.954;2022-10-17T09:14:00;29.60;40.30
64549;DHT22;49838;51.798;10.954;2022-10-17T09:16:38;29.70;40.40
64549;DHT22;49838;51.798;10.954;2022-10-17T09:19:27;29.70;40.40
64549;DHT22;49838;51.798;10.954;2022-10-17T09:21:58;29.80;40.50
64549;DHT22;49838;51.798;10.954;2022-10-17T09:24:34;29.80;40.40
64549;DHT22;49838;51.798;10.954;2022-10-17T09:27:09;30.00;40.50
64549;DHT22;49838;51.798;10.954;2022-10-17T09:29:45;30.00;40.30
64549;DHT22;49838;51.798;10.954;2022-10-17T09:32:16;30.20;40.10
64549;DHT22;49838;51.798;10.954;2022-10-17T09:34:49;30.40;40.00
64549;DHT22;49838;51.798;10.954;2022-10-17T09:37:17;30.80;40.10
64549;DHT22;49838;51.798;10.954;2022-10-17T09:39:48;31.20;40.80
64549;DHT22;49838;51.798;10.954;2022-10-17T09:42:16;31.60;40.50
64549;DHT22;49838;51.798;10.954;2022-10-17T09:44:48;31.90;40.10
64549;DHT22;49838;51.798;10.954;2022-10-17T09:47:21;32.10;39.90
64549;DHT22;49838;51.798;10.954;2022-10-17T09:49:55;32.30;39.70
64549;DHT22;49838;51.798;10.954;2022-10-17T09:52:25;32.60;39.20
64549;DHT22;49838;51.798;10.954;2022-10-17T09:54:56;32.60;39.00
64549;DHT22;49838;51.798;10.954;2022-10-17T09:57:26;32.60;38.50
64549;DHT22;49838;51.798;10.954;2022-10-17T09:59:57;32.60;38.10
64549;DHT22;49838;51.798;10.954;2022-10-17T10:02:26;32.40;38.00
64549;DHT22;49838;51.798;10.954;2022-10-17T10:04:58;32.40;37.90
64549;DHT22;49838;51.798;10.954;2022-10-17T10:07:28;32.60;38.40
64549;DHT22;49838;51.798;10.954;2022-10-17T10:09:57;32.70;38.50
64549;DHT22;49838;51.798;10.954;2022-10-17T10:12:28;32.80;38.70
64549;DHT22;49838;51.798;10.954;2022-10-17T10:14:57;32.90;38.20
64549;DHT22;49838;51.798;10.954;2022-10-17T10:17:26;33.00;37.40
64549;DHT22;49838;51.798;10.954;2022-10-17T10:20:24;33.20;37.10
64549;DHT22;49838;51.798;10.954;2022-10-17T10:23:07;33.40;37.40
64549;DHT22;49838;51.798;10.954;2022-10-17T10:25:48;33.60;37.60
64549;DHT22;49838;51.798;10.954;2022-10-17T10:28:19;33.80;37.00
64549;DHT22;49838;51.798;10.954;2022-10-17T10:30:48;33.90;37.10
64549;DHT22;49838;51.798;10.954;2022-10-17T10:33:18;34.00;37.20
64549;DHT22;49838;51.798;10.954;2022-10-17T10:35:52;34.00;37.20
64549;DHT22;49838;51.798;10.954;2022-10-17T10:38:22;34.00;36.40
64549;DHT22;49838;51.798;10.954;2022-10-17T10:40:51;33.80;36.20
64549;DHT22;49838;51.798;10.954;2022-10-17T10:43:23;33.70;36.20
64549;DHT22;49838;51.798;10.954;2022-10-17T10:45:57;33.50;35.90
64549;DHT22;49838;51.798;10.954;2022-10-17T10:48:26;33.40;35.80
64549;DHT22;49838;51.798;10.954;2022-10-17T10:50:59;33.30;35.70
64549;DHT22;49838;51.798;10.954;2022-10-17T10:53:32;33.10;35.60
64549;DHT22;49838;51.798;10.954;2022-10-17T10:56:07;32.90;36.00
64549;DHT22;49838;51.798;10.954;2022-10-17T10:58:42;32.70;35.70
64549;DHT22;49838;51.798;10.954;2022-10-17T11:01:21;32.60;36.00
64549;DHT22;49838;51.798;10.954;2022-10-17T11:03:58;32.50;36.00
64549;DHT22;49838;51.798;10.954;2022-10-17T11:06:35;32.50;36.20
64549;DHT22;49838;51.798;10.954;2022-10-17T11:09:12;32.60;36.10
64549;DHT22;49838;51.798;10.954;2022-10-17T11:11:51;32.80;36.70
64549;DHT22;49838;51.798;10.954;2022-10-17T11:14:28;33.10;37.20
64549;DHT22;49838;51.798;10.954;2022-10-17T11:17:04;33.30;36.80
64549;DHT22;49838;51.798;10.954;2022-10-17T11:19:40;33.40;36.80
64549;DHT22;49838;51.798;10.954;2022-10-17T11:22:14;33.60;36.00
64549;DHT22;49838;51.798;10.954;2022-10-17T11:24:47;33.60;36.10
64549;DHT22;49838;51.798;10.954;2022-10-17T11:27:21;33.60;35.60
64549;DHT22;49838;51.798;10.954;2022-10-17T11:29:49;33.60;35.50
64549;DHT22;49838;51.798;10.954;2022-10-17T11:32:18;33.60;35.00
64549;DHT22;49838;51.798;10.954;2022-10-17T11:34:50;33.60;35.50
64549;DHT22;49838;51.798;10.954;2022-10-17T11:37:25;33.70;35.40
64549;DHT22;49838;51.798;10.954;2022-10-17T11:39:56;33.70;35.30
64549;DHT22;49838;51.798;10.954;2022-10-17T11:42:29;33.70;34.80
64549;DHT22;49838;51.798;10.954;2022-10-17T11:45:01;33.70;35.10
64549;DHT22;49838;51.798;10.954;2022-10-17T11:47:35;33.70;34.70
64549;DHT22;49838;51.798;10.954;2022-10-17T11:50:11;33.60;34.40
64549;DHT22;49838;51.798;10.954;2022-10-17T11:52:47;33.50;34.30
64549;DHT22;49838;51.798;10.954;2022-10-17T11:55:19;33.50;34.40
64549;DHT22;49838;51.798;10.954;2022-10-17T11:57:51;33.50;34.90
64549;DHT22;49838;51.798;10.954;2022-10-17T12:00:30;33.60;35.00
64549;DHT22;49838;51.798;10.954;2022-10-17T12:03:11;33.60;34.70
64549;DHT22;49838;51.798;10.954;2022-10-17T12:05:47;33.60;34.10
64549;DHT22;49838;51.798;10.954;2022-10-17T12:08:22;33.60;34.40
64549;DHT22;49838;51.798;10.954;2022-10-17T12:10:54;33.50;33.80
64549;DHT22;49838;51.798;10.954;2022-10-17T12:19:20;33.40;33.70
64549;DHT22;49838;51.798;10.954;2022-10-17T12:21:53;33.50;34.00
64549;DHT22;49838;51.798;10.954;2022-10-17T12:24:30;33.50;33.80
64549;DHT22;49838;51.798;10.954;2022-10-17T12:29:48;33.40;33.50
64549;DHT22;49838;51.798;10.954;2022-10-17T12:32:16;33.40;33.30
64549;DHT22;49838;51.798;10.954;2022-10-17T12:34:50;33.40;33.20
64549;DHT22;49838;51.798;10.954;2022-10-17T12:40:52;33.40;32.60
64549;DHT22;49838;51.798;10.954;2022-10-17T12:43:35;33.30;32.60
64549;DHT22;49838;51.798;10.954;2022-10-17T12:49:37;33.20;32.30
64549;DHT22;49838;51.798;10.954;2022-10-17T12:54:58;33.20;32.30
64549;DHT22;49838;51.798;10.954;2022-10-17T12:57:34;33.10;32.40
64549;DHT22;49838;51.798;10.954;2022-10-17T13:00:12;33.10;32.80
64549;DHT22;49838;51.798;10.954;2022-10-17T13:02:43;33.10;32.90
64549;DHT22;49838;51.798;10.954;2022-10-17T13:05:13;32.90;32.60
64549;DHT22;49838;51.798;10.954;2022-10-17T13:07:43;32.90;33.10
64549;DHT22;49838;51.798;10.954;2022-10-17T13:10:21;32.90;33.10
64549;DHT22;49838;51.798;10.954;2022-10-17T13:12:53;32.90;33.20
64549;DHT22;49838;51.798;10.954;2022-10-17T13:15:28;32.90;32.80
64549;DHT22;49838;51.798;10.954;2022-10-17T13:17:58;32.90;32.70
64549;DHT22;49838;51.798;10.954;2022-10-17T13:20:27;32.80;33.00
64549;DHT22;49838;51.798;10.954;2022-10-17T13:22:55;32.80;33.00
64549;DHT22;49838;51.798;10.954;2022-10-17T13:25:23;32.80;32.90
64549;DHT22;49838;51.798;10.954;2022-10-17T13:28:03;32.80;33.10
64549;DHT22;49838;51.798;10.954;2022-10-17T13:30:37;32.80;33.40
64549;DHT22;49838;51.798;10.954;2022-10-17T13:33:15;32.80;33.40
64549;DHT22;49838;51.798;10.954;2022-10-17T13:35:53;32.80;33.10
64549;DHT22;49838;51.798;10.954;2022-10-17T13:38:22;32.70;33.20
64549;DHT22;49838;51.798;10.954;2022-10-17T13:40:52;32.60;32.60
64549;DHT22;49838;51.798;10.954;2022-10-17T13:43:21;32.60;33.00
64549;DHT22;49838;51.798;10.954;2022-10-17T13:45:50;32.50;32.80
64549;DHT22;49838;51.798;10.954;2022-10-17T13:48:21;32.40;32.80
64549;DHT22;49838;51.798;10.954;2022-10-17T13:50:51;32.40;32.60
64549;DHT22;49838;51.798;10.954;2022-10-17T13:53:23;32.30;32.60
64549;DHT22;49838;51.798;10.954;2022-10-17T13:55:56;32.30;32.60
64549;DHT22;49838;51.798;10.954;2022-10-17T13:58:28;32.30;32.80
64549;DHT22;49838;51.798;10.954;2022-10-17T14:00:57;32.30;32.80
64549;DHT22;49838;51.798;10.954;2022-10-17T14:03:25;32.30;32.80
64549;DHT22;49838;51.798;10.954;2022-10-17T14:08:49;32.40;33.20
64549;DHT22;49838;51.798;10.954;2022-10-17T14:11:21;32.40;33.00
64549;DHT22;49838;51.798;10.954;2022-10-17T14:13:54;32.40;32.90
64549;DHT22;49838;51.798;10.954;2022-10-17T14:16:23;32.30;33.00
64549;DHT22;49838;51.798;10.954;2022-10-17T14:18:52;32.20;33.20
64549;DHT22;49838;51.798;10.954;2022-10-17T14:21:22;32.10;33.30
64549;DHT22;49838;51.798;10.954;2022-10-17T14:26:47;32.10;33.70
64549;DHT22;49838;51.798;10.954;2022-10-17T14:29:24;32.10;33.60
64549;DHT22;49838;51.798;10.954;2022-10-17T14:31:56;32.00;33.70
64549;DHT22;49838;51.798;10.954;2022-10-17T14:34:26;32.00;33.60
64549;DHT22;49838;51.798;10.954;2022-10-17T14:36:56;31.90;33.60
64549;DHT22;49838;51.798;10.954;2022-10-17T14:39:25;31.90;33.60
64549;DHT22;49838;51.798;10.954;2022-10-17T14:41:54;31.80;33.60
64549;DHT22;49838;51.798;10.954;2022-10-17T14:44:24;31.70;33.60
64549;DHT22;49838;51.798;10.954;2022-10-17T14:46:56;31.60;33.40
64549;DHT22;49838;51.798;10.954;2022-10-17T14:49:35;31.60;33.40
64549;DHT22;49838;51.798;10.954;2022-10-17T14:54:52;31.50;33.80
64549;DHT22;49838;51.798;10.954;2022-10-17T14:57:22;31.50;33.50
64549;DHT22;49838;51.798;10.954;2022-10-17T14:59:53;31.40;33.40
64549;DHT22;49838;51.798;10.954;2022-10-17T15:02:21;31.30;33.50
64549;DHT22;49838;51.798;10.954;2022-10-17T15:04:49;31.30;33.50
64549;DHT22;49838;51.798;10.954;2022-10-17T15:07:16;31.20;33.70
64549;DHT22;49838;51.798;10.954;2022-10-17T15:09:46;31.20;33.70
64549;DHT22;49838;51.798;10.954;2022-10-17T15:12:15;31.10;33.70
64549;DHT22;49838;51.798;10.954;2022-10-17T15:14:44;31.10;33.60
64549;DHT22;49838;51.798;10.954;2022-10-17T15:17:15;31.00;33.60
64549;DHT22;49838;51.798;10.954;2022-10-17T15:19:45;30.90;33.60
64549;DHT22;49838;51.798;10.954;2022-10-17T15:22:13;30.90;33.50
64549;DHT22;49838;51.798;10.954;2022-10-17T15:24:41;30.80;33.60
64549;DHT22;49838;51.798;10.954;2022-10-17T15:27:12;30.70;33.70
64549;DHT22;49838;51.798;10.954;2022-10-17T15:29:42;30.70;33.60
64549;DHT22;49838;51.798;10.954;2022-10-17T15:32:09;30.60;33.60
64549;DHT22;49838;51.798;10.954;2022-10-17T15:34:38;30.60;33.80
64549;DHT22;49838;51.798;10.954;2022-10-17T15:37:09;30.50;33.80
64549;DHT22;49838;51.798;10.954;2022-10-17T15:39:42;30.40;33.80
64549;DHT22;49838;51.798;10.954;2022-10-17T15:42:10;30.40;33.90
64549;DHT22;49838;51.798;10.954;2022-10-17T15:44:38;30.30;34.00
64549;DHT22;49838;51.798;10.954;2022-10-17T15:47:10;30.20;34.10
64549;DHT22;49838;51.798;10.954;2022-10-17T15:49:46;30.20;34.00
64549;DHT22;49838;51.798;10.954;2022-10-17T15:52:14;30.10;34.00
64549;DHT22;49838;51.798;10.954;2022-10-17T15:54:42;30.00;34.00
64549;DHT22;49838;51.798;10.954;2022-10-17T15:57:11;29.90;34.10
64549;DHT22;49838;51.798;10.954;2022-10-17T15:59:44;29.90;34.10
64549;DHT22;49838;51.798;10.954;2022-10-17T16:02:14;29.90;34.10
64549;DHT22;49838;51.798;10.954;2022-10-17T16:04:42;29.80;34.10
64549;DHT22;49838;51.798;10.954;2022-10-17T16:07:11;29.70;34.20